X  Schließen METAR Luftfahrt Wetterdaten     EHRD Rotterdam The Hague Airport
Temperatur
61°F Temperatur
55°F Taupunkt
83% Feuchtigkeit



Wind
3 MPS
5 KM/S
1 M/S
3 KTS



210°
SSW
Aktuelle Wetterlage

Teilweise bewölkt Teilweise bewölkt
Luftdruck 1014.9 (hPa) - 29.97 (inHg)
Sichtweite 6 (Meile) - 9.7 (Km)
Flughafen
Flughafen Code EHRD

Position : Rotterdam The Hague Airport
Entfernung: 23 (mi)

Metar:
EHRD 220425Z AUTO 21003KT 9999 FEW025 16/13 Q1015 NOSIG

Zeit: 22-07-2024 06:25 CEST